Time;durP1;ratioP1;P1;durP2;ratioP2;P2;SDS_P1;SDS_P2;PMS_P1;PMS_P2;Temp;Humidity;BMP_temperature;BMP_pressure;BME280_temperature;BME280_humidity;BME280_pressure;Samples;Min_cycle;Max_cycle;Signal;HPM_P1;HPM_P2
2020/12/06 00:01:48;;;;;;;13.73;6.10;;;;;;;8.18;62.35;98222.19;4925067;29;20047;-77
2020/12/06 00:04:19;;;;;;;16.15;7.35;;;;;;;8.17;62.27;98220.47;4932115;29;20102;-78
2020/12/06 00:06:47;;;;;;;12.27;6.10;;;;;;;8.08;62.61;98225.84;4909497;29;20042;-78
2020/12/06 00:09:16;;;;;;;12.75;4.97;;;;;;;8.25;62.10;98226.34;4922520;29;20051;-78
2020/12/06 00:11:43;;;;;;;16.25;4.95;;;;;;;8.34;61.93;98222.75;4952187;28;20046;-79
2020/12/06 00:14:09;;;;;;;13.77;5.38;;;;;;;8.04;62.71;98229.41;4948272;28;20148;-78
2020/12/06 00:16:36;;;;;;;13.02;5.03;;;;;;;7.60;64.23;98233.75;4944326;28;20084;-78
2020/12/06 00:19:02;;;;;;;11.73;4.75;;;;;;;8.06;62.92;98227.63;4951476;28;20462;-77
2020/12/06 00:21:28;;;;;;;15.05;5.50;;;;;;;8.03;63.49;98222.50;4932626;29;20475;-78
2020/12/06 00:23:54;;;;;;;15.65;5.55;;;;;;;7.72;64.60;98227.47;4934410;28;20039;-78
2020/12/06 00:26:27;;;;;;;11.82;6.35;;;;;;;7.77;64.00;98228.25;4946754;28;20109;-77
2020/12/06 00:28:54;;;;;;;11.48;5.85;;;;;;;8.02;63.82;98223.38;4936010;28;20098;-78
2020/12/06 00:31:20;;;;;;;19.10;5.70;;;;;;;7.56;65.16;98231.25;4935034;28;20820;-78
2020/12/06 00:33:47;;;;;;;12.30;5.13;;;;;;;7.78;64.67;98229.94;4945050;28;20122;-78
2020/12/06 00:36:15;;;;;;;16.40;5.05;;;;;;;7.59;65.26;98236.38;4955894;28;20108;-78
2020/12/06 00:38:42;;;;;;;11.77;4.95;;;;;;;7.72;64.94;98235.28;4943204;28;20509;-79
2020/12/06 00:41:14;;;;;;;15.43;4.97;;;;;;;8.13;63.46;98229.22;4963788;28;20042;-78
2020/12/06 00:43:41;;;;;;;18.20;4.47;;;;;;;7.65;64.72;98226.72;4964702;28;20047;-77
2020/12/06 00:46:11;;;;;;;13.50;4.43;;;;;;;7.50;65.86;98231.34;4949798;28;20027;-78
2020/12/06 00:48:38;;;;;;;19.98;4.28;;;;;;;7.61;65.98;98232.00;4947728;28;20031;-79
2020/12/06 00:51:04;;;;;;;18.80;4.97;;;;;;;7.92;64.91;98230.50;4948623;28;20039;-77
2020/12/06 00:53:30;;;;;;;12.48;3.65;;;;;;;7.92;64.86;98224.44;4937066;28;20103;-77
2020/12/06 00:55:56;;;;;;;12.32;4.38;;;;;;;8.11;64.28;98228.38;4952077;28;20043;-78
2020/12/06 00:58:22;;;;;;;15.45;4.07;;;;;;;8.34;63.32;98228.81;4925377;29;20039;-78
2020/12/06 01:00:49;;;;;;;17.42;3.95;;;;;;;8.08;64.20;98228.47;4948100;28;21597;-79
2020/12/06 01:03:15;;;;;;;16.40;3.80;;;;;;;8.25;63.35;98224.59;4934423;29;20044;-78
2020/12/06 01:05:40;;;;;;;14.35;4.60;;;;;;;7.78;64.99;98229.94;4967996;28;20053;-78
2020/12/06 01:08:06;;;;;;;10.68;4.50;;;;;;;7.88;65.06;98242.72;4948728;28;20070;-77
2020/12/06 01:10:33;;;;;;;12.15;4.03;;;;;;;7.74;65.80;98238.69;4945854;28;20039;-77
2020/12/06 01:12:59;;;;;;;15.63;4.13;;;;;;;8.12;64.34;98225.75;4929479;29;20424;-77
2020/12/06 01:15:28;;;;;;;12.75;3.75;;;;;;;8.21;64.25;98229.91;4951731;28;20134;-76
2020/12/06 01:17:54;;;;;;;19.05;3.88;;;;;;;8.01;64.47;98234.69;4933343;28;20027;-76
2020/12/06 01:20:21;;;;;;;11.68;3.33;;;;;;;8.29;63.62;98233.22;4946413;28;20094;-77
2020/12/06 01:22:47;;;;;;;8.05;3.45;;;;;;;7.60;66.19;98232.88;4933047;28;20399;-78
2020/12/06 01:25:13;;;;;;;10.55;3.28;;;;;;;8.40;63.44;98235.59;4948363;28;20049;-79
2020/12/06 01:27:40;;;;;;;8.75;3.50;;;;;;;8.20;64.03;98233.41;4947196;28;20050;-77
2020/12/06 01:30:06;;;;;;;9.02;3.50;;;;;;;8.44;63.16;98242.47;4928246;29;20039;-77
2020/12/06 01:32:32;;;;;;;11.00;3.65;;;;;;;8.13;64.05;98243.09;4949491;28;20128;-77
2020/12/06 01:35:00;;;;;;;15.80;3.28;;;;;;;8.16;63.66;98244.75;4938472;28;20039;-78
2020/12/06 01:37:26;;;;;;;15.93;4.05;;;;;;;8.18;63.98;98250.78;4968023;28;20042;-77
2020/12/06 01:39:52;;;;;;;13.68;3.28;;;;;;;8.34;63.28;98247.03;4965961;28;20035;-77
2020/12/06 01:42:18;;;;;;;13.05;3.33;;;;;;;8.39;63.40;98245.19;4967789;28;20034;-77
2020/12/06 01:48:08;;;;;;;14.30;2.88;;;;;;;9.07;61.34;98253.97;4927153;29;20463;-76
2020/12/06 01:50:38;;;;;;;5.57;2.85;;;;;;;9.15;61.55;98264.22;4928408;29;20043;-77
2020/12/06 01:53:06;;;;;;;12.65;3.50;;;;;;;9.01;61.91;98264.56;4916467;29;20043;-77
2020/12/06 01:55:32;;;;;;;11.23;3.15;;;;;;;9.47;60.72;98264.25;4910714;29;20039;-76
2020/12/06 01:58:08;;;;;;;13.77;4.05;;;;;;;9.17;61.54;98263.28;4915146;29;20126;-77
2020/12/06 02:00:38;;;;;;;12.38;4.18;;;;;;;9.32;61.48;98267.25;4929689;29;20126;-77
2020/12/06 02:03:04;;;;;;;8.88;3.70;;;;;;;9.14;62.13;98270.31;4912160;29;20442;-77
2020/12/06 02:05:32;;;;;;;13.63;4.28;;;;;;;9.18;62.07;98278.03;4901356;29;20127;-78
2020/12/06 02:07:58;;;;;;;12.63;3.40;;;;;;;9.11;61.83;98278.22;4917266;29;20031;-78
2020/12/06 02:10:28;;;;;;;11.45;3.22;;;;;;;9.21;61.89;98271.03;4915718;29;20047;-78
2020/12/06 02:12:54;;;;;;;16.77;3.90;;;;;;;8.79;63.06;98272.88;4914136;29;20047;-77
2020/12/06 02:15:38;;;;;;;12.80;3.78;;;;;;;8.84;62.43;98268.44;4927934;29;20083;-78
2020/12/06 02:18:04;;;;;;;9.80;3.75;;;;;;;9.11;62.06;98266.03;4898567;29;20056;-77
2020/12/06 02:20:29;;;;;;;12.85;3.33;;;;;;;9.02;62.33;98275.81;4912429;29;21220;-79
2020/12/06 02:22:55;;;;;;;16.25;3.22;;;;;;;8.74;63.04;98268.66;4920217;29;20062;-78
2020/12/06 02:25:22;;;;;;;8.98;4.68;;;;;;;8.81;62.72;98269.38;4936727;28;20050;-78
2020/12/06 02:27:47;;;;;;;12.32;3.70;;;;;;;8.58;63.97;98269.03;4943893;28;20045;-78
2020/12/06 02:30:13;;;;;;;11.55;3.50;;;;;;;8.88;63.12;98263.13;4950793;28;20390;-79
2020/12/06 02:32:39;;;;;;;12.05;3.15;;;;;;;8.55;63.87;98264.75;4949560;28;20050;-77
2020/12/06 02:35:05;;;;;;;10.25;2.95;;;;;;;9.14;62.05;98252.09;4946033;28;20032;-77
2020/12/06 02:37:32;;;;;;;9.13;2.47;;;;;;;9.32;61.54;98255.97;4948434;28;20031;-77
2020/12/06 02:39:58;;;;;;;10.50;3.40;;;;;;;9.47;60.72;98251.22;4941897;29;20030;-76
2020/12/06 02:42:24;;;;;;;12.52;3.13;;;;;;;9.45;60.68;98253.00;4963184;28;20034;-77
2020/12/06 02:44:50;;;;;;;7.55;2.83;;;;;;;9.57;60.26;98260.53;4961218;28;20031;-76
2020/12/06 02:47:16;;;;;;;6.82;2.60;;;;;;;9.72;60.17;98253.19;4957226;28;20355;-77
2020/12/06 02:49:41;;;;;;;10.52;2.72;;;;;;;9.78;60.20;98264.31;4946632;28;20035;-78
2020/12/06 02:52:10;;;;;;;10.52;3.42;;;;;;;9.89;59.71;98264.88;4949796;28;20427;-77
2020/12/06 02:54:36;;;;;;;10.15;3.28;;;;;;;9.51;60.60;98259.81;4955360;28;20054;-78
2020/12/06 02:57:06;;;;;;;7.25;2.72;;;;;;;9.31;61.53;98267.28;4943388;28;20519;-77
2020/12/06 02:59:32;;;;;;;9.15;3.10;;;;;;;9.43;61.24;98264.38;4967019;28;20035;-77
2020/12/06 03:01:58;;;;;;;9.07;2.75;;;;;;;9.12;62.38;98270.34;4947624;28;20114;-78
2020/12/06 03:04:23;;;;;;;12.52;3.03;;;;;;;8.70;64.29;98266.16;4950100;28;20035;-78
2020/12/06 03:06:49;;;;;;;10.45;2.35;;;;;;;8.93;63.22;98260.41;4945467;28;20031;-78
2020/12/06 03:09:15;;;;;;;10.48;2.63;;;;;;;9.20;62.11;98262.38;4946169;28;20513;-79
2020/12/06 03:11:40;;;;;;;11.60;2.58;;;;;;;9.42;61.70;98258.31;4949900;28;20051;-77
2020/12/06 03:14:07;;;;;;;19.05;2.92;;;;;;;8.88;63.19;98270.06;4929947;28;20135;-79
2020/12/06 03:16:33;;;;;;;8.88;2.50;;;;;;;9.00;63.11;98269.78;4950650;28;20150;-79
2020/12/06 03:19:00;;;;;;;11.65;3.00;;;;;;;9.32;61.78;98274.22;4933735;29;20348;-79
2020/12/06 03:21:25;;;;;;;9.98;2.85;;;;;;;8.92;63.36;98269.13;4933590;29;20058;-80
2020/12/06 03:23:51;;;;;;;7.55;2.38;;;;;;;8.69;63.80;98262.69;4949346;28;20202;-77
2020/12/06 03:26:17;;;;;;;17.02;2.10;;;;;;;8.66;63.71;98269.72;4949726;28;20159;-78
2020/12/06 03:28:43;;;;;;;10.07;2.05;;;;;;;8.47;63.74;98274.47;4931985;29;20035;-80
2020/12/06 03:31:08;;;;;;;12.40;3.30;;;;;;;8.67;63.01;98271.44;4942299;28;20062;-76
2020/12/06 03:33:34;;;;;;;7.72;2.55;;;;;;;8.35;64.40;98263.47;4926064;29;20032;-78
2020/12/06 03:36:00;;;;;;;6.88;2.13;;;;;;;8.04;64.63;98265.81;4947411;28;20036;-78
2020/12/06 03:38:26;;;;;;;6.00;2.30;;;;;;;7.76;66.07;98266.38;4946335;28;20031;-77
2020/12/06 03:40:52;;;;;;;9.10;2.30;;;;;;;7.68;65.74;98257.84;4933575;28;20434;-77
2020/12/06 03:43:17;;;;;;;10.32;2.40;;;;;;;7.65;66.50;98263.09;4943963;28;20035;-78
2020/12/06 03:45:43;;;;;;;8.52;2.53;;;;;;;8.07;65.00;98264.00;4957858;28;20107;-77
2020/12/06 03:48:09;;;;;;;6.82;3.67;;;;;;;7.58;65.97;98258.91;4955429;28;20167;-77
2020/12/06 03:50:35;;;;;;;9.32;2.30;;;;;;;7.61;66.01;98256.25;4955792;28;20039;-77
2020/12/06 03:53:02;;;;;;;5.35;2.47;;;;;;;7.62;66.30;98257.97;4934935;29;20031;-77
2020/12/06 03:55:28;;;;;;;8.80;2.85;;;;;;;8.10;65.00;98263.09;4948833;28;20030;-77
2020/12/06 03:57:53;;;;;;;8.60;2.72;;;;;;;7.68;66.02;98268.25;4966490;28;20046;-76
2020/12/06 04:00:21;;;;;;;7.07;2.40;;;;;;;7.54;66.83;98256.38;4966806;28;20035;-77
2020/12/06 04:02:50;;;;;;;7.25;2.47;;;;;;;7.66;66.12;98263.97;4954717;28;20054;-77
2020/12/06 04:05:20;;;;;;;8.90;2.10;;;;;;;7.26;66.84;98267.28;4949395;28;20183;-77
2020/12/06 04:07:50;;;;;;;8.38;2.85;;;;;;;7.70;65.49;98260.41;4916037;29;20043;-79
2020/12/06 04:10:17;;;;;;;8.80;2.00;;;;;;;7.19;67.84;98262.22;4951751;28;20035;-77
2020/12/06 04:12:43;;;;;;;8.68;2.67;;;;;;;7.89;65.69;98265.25;4955757;28;20054;-79
2020/12/06 04:15:09;;;;;;;5.38;2.22;;;;;;;7.67;66.28;98263.09;4938043;28;20062;-77
2020/12/06 04:17:35;;;;;;;6.28;2.20;;;;;;;7.94;65.15;98265.16;4949199;28;20062;-77
2020/12/06 04:20:01;;;;;;;9.65;1.95;;;;;;;7.73;65.99;98271.59;4955897;28;20363;-77
2020/12/06 04:22:26;;;;;;;6.97;2.20;;;;;;;8.16;65.04;98268.16;4934969;29;20031;-78
2020/12/06 04:24:52;;;;;;;7.57;2.20;;;;;;;7.99;65.55;98265.91;4931914;28;20027;-77
2020/12/06 04:27:18;;;;;;;7.32;2.28;;;;;;;7.48;66.30;98264.31;4947026;28;20030;-77
2020/12/06 04:29:43;;;;;;;8.45;2.55;;;;;;;7.43;67.08;98267.81;4937221;29;20195;-78
2020/12/06 04:32:09;;;;;;;5.30;1.95;;;;;;;7.93;65.58;98259.97;4950247;28;20143;-76
2020/12/06 04:34:36;;;;;;;9.45;2.38;;;;;;;7.69;66.39;98267.34;4951062;28;20031;-77
2020/12/06 04:37:06;;;;;;;4.85;2.72;;;;;;;7.88;66.00;98257.47;4950627;28;20106;-76
2020/12/06 04:39:33;;;;;;;9.52;2.40;;;;;;;7.77;66.60;98268.06;4941562;28;20697;-77
2020/12/06 04:42:00;;;;;;;6.18;2.13;;;;;;;7.58;67.30;98269.28;4932315;28;20031;-78
2020/12/06 04:44:26;;;;;;;14.38;2.80;;;;;;;7.73;66.73;98265.56;4955429;28;20117;-77
2020/12/06 04:46:59;;;;;;;8.55;3.40;;;;;;;7.94;66.81;98259.09;4931800;28;20043;-78
2020/12/06 04:49:42;;;;;;;5.63;2.90;;;;;;;8.03;65.97;98264.09;4954741;28;20137;-76
2020/12/06 04:52:16;;;;;;;7.55;2.50;;;;;;;7.93;66.71;98259.97;4954339;28;20088;-78
2020/12/06 04:54:48;;;;;;;5.25;2.63;;;;;;;8.08;66.07;98259.66;4952146;28;20118;-76
2020/12/06 04:57:19;;;;;;;9.25;2.95;;;;;;;8.00;66.77;98259.84;4946857;28;20155;-77
2020/12/06 04:59:47;;;;;;;7.20;3.00;;;;;;;7.53;67.97;98257.28;4935614;29;20139;-77
2020/12/06 05:02:18;;;;;;;7.85;3.05;;;;;;;7.66;67.67;98264.84;4953211;28;20499;-80
2020/12/06 05:04:47;;;;;;;9.73;3.47;;;;;;;7.42;68.79;98266.13;4933942;29;20593;-77
2020/12/06 05:07:16;;;;;;;7.85;3.13;;;;;;;8.16;66.70;98266.41;4934642;29;20036;-79
2020/12/06 05:09:43;;;;;;;9.48;4.03;;;;;;;8.56;65.22;98266.47;4938627;28;20031;-78
2020/12/06 05:12:12;;;;;;;8.73;4.07;;;;;;;8.46;65.56;98264.09;4952822;28;20035;-77
2020/12/06 05:14:41;;;;;;;11.48;4.03;;;;;;;7.69;68.00;98264.75;4939736;29;20047;-78
2020/12/06 05:17:09;;;;;;;10.55;4.15;;;;;;;7.93;67.48;98267.78;4949658;28;20091;-78
2020/12/06 05:19:35;;;;;;;11.27;3.90;;;;;;;7.59;68.50;98265.81;4961813;28;20079;-78
2020/12/06 05:22:02;;;;;;;7.85;4.05;;;;;;;8.49;66.27;98266.66;4951721;28;20047;-77
2020/12/06 05:24:30;;;;;;;11.63;4.47;;;;;;;8.38;65.68;98266.88;4952491;28;20043;-79
2020/12/06 05:26:57;;;;;;;9.45;3.47;;;;;;;8.48;66.16;98264.94;4952031;28;20026;-77
2020/12/06 05:29:22;;;;;;;11.48;4.05;;;;;;;8.38;65.57;98266.88;4943122;28;20110;-77
2020/12/06 05:31:48;;;;;;;8.13;4.18;;;;;;;8.44;66.00;98268.50;4936282;28;20043;-77
2020/12/06 05:34:18;;;;;;;7.22;4.00;;;;;;;8.37;65.63;98265.16;4954115;28;20035;-76
2020/12/06 05:36:44;;;;;;;5.55;3.55;;;;;;;8.61;65.21;98267.22;4973887;28;20069;-78
2020/12/06 05:39:10;;;;;;;8.18;3.33;;;;;;;8.42;65.89;98268.50;4936035;29;20067;-77
2020/12/06 05:41:36;;;;;;;9.55;3.58;;;;;;;8.74;65.03;98265.19;4941999;28;20122;-77
2020/12/06 05:44:03;;;;;;;8.52;4.63;;;;;;;8.55;65.31;98269.09;4943414;28;20142;-77
2020/12/06 05:46:32;;;;;;;7.18;3.40;;;;;;;8.58;65.76;98269.03;4948283;28;20090;-77
2020/12/06 05:48:58;;;;;;;8.10;4.32;;;;;;;8.34;66.45;98270.44;4946781;28;20072;-77
2020/12/06 05:51:25;;;;;;;8.95;3.85;;;;;;;8.68;65.23;98273.16;4951760;28;20402;-77
2020/12/06 05:53:54;;;;;;;8.23;3.47;;;;;;;8.66;65.34;98270.59;4955117;28;20046;-76
2020/12/06 05:56:21;;;;;;;5.82;4.00;;;;;;;8.76;64.71;98273.84;4939244;28;20039;-78
2020/12/06 05:58:50;;;;;;;9.30;4.25;;;;;;;8.70;65.13;98264.41;4963799;28;20081;-77
2020/12/06 06:01:17;;;;;;;7.85;4.00;;;;;;;8.59;65.48;98273.34;4919364;29;20126;-77
2020/12/06 06:03:46;;;;;;;12.57;4.63;;;;;;;8.39;66.15;98268.59;4918462;29;20043;-79
2020/12/06 06:06:38;;;;;;;6.22;4.03;;;;;;;8.58;65.38;98274.25;4949961;28;20039;-79
2020/12/06 06:09:05;;;;;;;9.15;4.88;;;;;;;8.94;64.43;98264.72;4945887;28;20407;-77
2020/12/06 06:12:28;;;;;;;10.05;4.05;;;;;;;8.61;65.17;98267.22;4954401;28;20035;-78
2020/12/06 06:14:56;;;;;;;11.50;4.22;;;;;;;8.82;64.70;98265.88;4933998;28;20065;-77
2020/12/06 06:17:24;;;;;;;10.57;4.47;;;;;;;8.50;65.86;98271.81;4934664;29;20039;-78
2020/12/06 06:19:50;;;;;;;12.65;3.90;;;;;;;8.16;66.84;98269.03;4924888;28;20047;-77
2020/12/06 06:22:20;;;;;;;7.55;4.10;;;;;;;8.61;65.37;98274.16;4925616;29;20061;-77
2020/12/06 06:24:47;;;;;;;9.20;3.75;;;;;;;8.40;66.32;98280.69;4932594;29;20070;-78
2020/12/06 06:27:13;;;;;;;7.70;3.90;;;;;;;8.71;65.67;98279.16;4929720;28;20130;-80
2020/12/06 06:29:40;;;;;;;7.15;3.80;;;;;;;8.92;64.87;98284.75;4930307;29;20559;-78
2020/12/06 06:32:09;;;;;;;5.97;3.45;;;;;;;8.81;65.51;98277.19;4932535;28;20137;-77
2020/12/06 06:34:37;;;;;;;8.32;4.03;;;;;;;8.85;65.15;98285.78;4905554;29;20142;-77
2020/12/06 06:37:13;;;;;;;6.88;4.13;;;;;;;8.90;65.28;98279.56;4934436;28;20051;-78
2020/12/06 06:39:40;;;;;;;6.65;3.80;;;;;;;9.02;64.25;98283.63;4916262;29;20443;-77
2020/12/06 06:42:10;;;;;;;9.68;4.13;;;;;;;8.54;65.56;98286.44;4928618;28;20091;-78
2020/12/06 06:44:45;;;;;;;8.18;4.30;;;;;;;8.63;65.86;98280.22;4931040;29;20126;-78
2020/12/06 06:47:13;;;;;;;8.13;4.75;;;;;;;8.86;65.57;98287.50;4946644;28;20031;-78
2020/12/06 06:49:55;;;;;;;10.63;5.10;;;;;;;8.71;65.68;98286.97;4969326;28;20173;-77
2020/12/06 06:52:26;;;;;;;10.45;4.60;;;;;;;8.70;66.12;98289.59;4946492;28;20048;-78
2020/12/06 06:54:54;;;;;;;8.93;3.92;;;;;;;8.98;64.91;98289.81;4941868;29;20031;-76
2020/12/06 06:57:21;;;;;;;6.90;4.82;;;;;;;8.98;64.26;98290.66;4953627;28;20121;-77
2020/12/06 06:59:52;;;;;;;13.27;4.55;;;;;;;8.86;65.12;98292.72;4936392;29;20402;-76
2020/12/06 07:02:32;;;;;;;10.45;4.88;;;;;;;8.67;65.66;98293.13;4944639;28;20038;-77
2020/12/06 07:04:59;;;;;;;7.20;4.95;;;;;;;8.99;65.04;98296.72;4954106;28;20039;-77
2020/12/06 07:07:45;;;;;;;14.48;5.57;;;;;;;8.58;66.13;98293.34;4949812;28;20095;-77
2020/12/06 07:10:14;;;;;;;9.95;5.28;;;;;;;8.99;64.92;98295.00;4948265;28;20150;-76
2020/12/06 07:12:50;;;;;;;11.50;5.25;;;;;;;8.69;65.34;98304.34;4932609;29;20085;-77
2020/12/06 07:15:18;;;;;;;10.40;5.38;;;;;;;8.84;65.06;98302.28;4962797;28;20055;-77
2020/12/06 07:17:45;;;;;;;9.00;5.50;;;;;;;8.73;65.47;98303.38;4933895;29;20065;-77
2020/12/06 07:20:14;;;;;;;7.63;5.72;;;;;;;9.15;64.94;98304.16;4934405;28;20062;-76
2020/12/06 07:22:41;;;;;;;8.82;5.55;;;;;;;9.17;64.63;98306.72;4927779;29;20118;-76
2020/12/06 07:25:09;;;;;;;9.90;5.60;;;;;;;8.79;65.40;98299.78;4944972;28;20253;-76
2020/12/06 07:27:35;;;;;;;8.30;5.75;;;;;;;9.04;65.36;98303.56;4961203;28;20031;-77
2020/12/06 07:30:02;;;;;;;11.45;5.18;;;;;;;9.10;65.02;98305.16;4946787;28;20062;-78
2020/12/06 07:32:28;;;;;;;11.38;5.80;;;;;;;8.39;67.20;98307.63;4948900;28;20554;-78
2020/12/06 07:34:57;;;;;;;16.80;5.65;;;;;;;9.06;65.16;98306.13;4962218;28;20039;-77
2020/12/06 07:37:22;;;;;;;8.48;5.72;;;;;;;8.57;67.41;98307.22;4959205;28;20039;-79
2020/12/06 07:39:50;;;;;;;11.73;6.57;;;;;;;8.97;65.73;98304.56;4931091;29;20046;-77
2020/12/06 07:42:27;;;;;;;9.25;5.57;;;;;;;8.59;66.45;98312.38;4937113;29;20047;-77
2020/12/06 07:44:55;;;;;;;8.27;5.75;;;;;;;9.31;64.54;98308.97;4943533;28;20035;-77
2020/12/06 07:47:22;;;;;;;11.80;5.55;;;;;;;9.32;64.44;98308.09;4938388;29;20051;-77
2020/12/06 07:49:50;;;;;;;9.93;6.05;;;;;;;8.67;65.81;98321.75;4933337;28;20035;-77
2020/12/06 07:52:29;;;;;;;9.15;5.50;;;;;;;9.09;65.14;98319.94;4936990;29;20039;-77
2020/12/06 07:55:01;;;;;;;9.90;5.55;;;;;;;8.58;66.44;98314.16;4962834;28;20059;-77
2020/12/06 07:57:39;;;;;;;16.55;6.45;;;;;;;8.35;67.43;98318.09;4965215;28;20035;-77
2020/12/06 08:00:08;;;;;;;9.88;6.65;;;;;;;8.97;65.84;98327.19;4942206;28;20034;-76
2020/12/06 08:02:36;;;;;;;8.73;5.88;;;;;;;9.02;65.55;98317.50;4951262;28;20031;-77
2020/12/06 08:05:03;;;;;;;8.75;5.65;;;;;;;9.04;65.31;98327.00;4936088;29;20785;-78
2020/12/06 08:07:43;;;;;;;10.32;5.32;;;;;;;9.01;65.70;98329.69;4950456;28;20106;-77
2020/12/06 08:10:13;;;;;;;10.43;6.38;;;;;;;9.11;65.60;98333.75;4936564;28;20447;-77
2020/12/06 08:12:41;;;;;;;8.35;5.93;;;;;;;8.93;65.68;98338.53;4957435;28;20066;-77
2020/12/06 08:15:08;;;;;;;9.10;5.85;;;;;;;9.43;64.79;98346.03;4944405;28;20054;-77
2020/12/06 08:17:50;;;;;;;9.85;5.57;;;;;;;9.21;64.96;98338.78;4965101;28;20032;-77
2020/12/06 08:20:21;;;;;;;9.20;5.78;;;;;;;9.48;64.42;98341.56;4946213;28;20051;-77
2020/12/06 08:22:58;;;;;;;16.27;8.55;;;;;;;9.34;64.77;98348.00;4946159;28;20122;-77
2020/12/06 08:25:26;;;;;;;9.77;6.07;;;;;;;9.33;64.75;98349.75;4961772;28;20090;-78
2020/12/06 08:27:53;;;;;;;10.65;6.15;;;;;;;9.50;64.44;98351.94;4934602;28;20575;-77
2020/12/06 08:30:22;;;;;;;9.13;5.90;;;;;;;9.14;65.66;98357.16;4936101;28;20035;-78
2020/12/06 08:32:51;;;;;;;10.85;5.55;;;;;;;9.23;65.61;98355.22;4950222;28;20103;-78
2020/12/06 08:35:17;;;;;;;10.52;6.40;;;;;;;9.57;64.37;98361.34;4934442;29;20471;-77
2020/12/06 08:37:43;;;;;;;10.52;5.97;;;;;;;9.32;65.44;98355.00;4947428;28;20062;-77
2020/12/06 08:40:10;;;;;;;9.02;6.15;;;;;;;9.04;66.40;98350.44;4933724;28;20051;-77
2020/12/06 08:42:37;;;;;;;8.95;6.00;;;;;;;8.47;68.11;98355.16;4950806;28;20037;-77
2020/12/06 08:45:03;;;;;;;10.80;6.28;;;;;;;9.14;65.96;98359.75;4932412;29;20055;-77
2020/12/06 08:47:45;;;;;;;10.57;6.63;;;;;;;9.15;65.86;98358.88;4948876;28;20035;-78
2020/12/06 08:50:12;;;;;;;;;;;;;;;9.12;66.09;98363.28;4930777;29;20054;-78
2020/12/06 08:52:38;;;;;;;7.82;5.03;;;;;;;9.36;64.99;98356.63;4927931;29;19921;-78
2020/12/06 08:55:30;;;;;;;10.95;6.22;;;;;;;9.25;65.92;98349.09;4919882;29;20047;-77
2020/12/06 08:57:59;;;;;;;11.33;6.37;;;;;;;9.53;64.97;98355.34;4947059;28;20122;-79
2020/12/06 09:00:26;;;;;;;10.55;6.00;;;;;;;9.41;64.93;98360.84;4951378;28;20752;-78
2020/12/06 09:02:55;;;;;;;10.90;6.03;;;;;;;9.35;65.69;98353.16;4915466;28;20166;-79
2020/12/06 09:05:21;;;;;;;11.35;5.35;;;;;;;9.52;65.22;98360.59;4950817;29;20054;-77
2020/12/06 09:07:47;;;;;;;7.05;5.15;;;;;;;9.60;65.03;98363.88;4917454;29;20697;-78
2020/12/06 09:10:13;;;;;;;9.15;5.72;;;;;;;9.79;64.35;98367.72;4936099;28;20107;-80
2020/12/06 09:12:38;;;;;;;9.70;5.75;;;;;;;9.42;65.12;98370.38;4928088;28;20130;-79
2020/12/06 09:15:06;;;;;;;9.32;5.80;;;;;;;9.00;66.83;98367.03;4934550;29;20483;-78
2020/12/06 09:17:33;;;;;;;8.18;6.00;;;;;;;9.42;66.02;98366.91;4933852;29;20686;-78
2020/12/06 09:19:59;;;;;;;8.10;5.53;;;;;;;9.78;64.71;98365.19;4953708;28;20158;-77
2020/12/06 09:22:26;;;;;;;9.13;5.43;;;;;;;9.83;64.13;98371.13;4932087;28;20035;-78
2020/12/06 09:24:51;;;;;;;7.97;5.53;;;;;;;9.73;64.96;98364.44;4918440;29;20043;-78
2020/12/06 09:27:18;;;;;;;8.50;6.22;;;;;;;9.80;64.37;98372.03;4951081;28;20055;-79
2020/12/06 09:29:44;;;;;;;9.40;6.88;;;;;;;9.80;65.05;98368.59;4936375;29;20102;-78
2020/12/06 09:32:13;;;;;;;9.35;6.30;;;;;;;9.83;64.79;98365.91;4938556;28;20046;-80
2020/12/06 09:34:39;;;;;;;12.85;6.75;;;;;;;9.64;64.92;98374.19;4938938;29;20041;-80
2020/12/06 09:37:11;;;;;;;9.35;6.05;;;;;;;10.01;64.19;98368.03;4938168;29;20624;-79
2020/12/06 09:39:37;;;;;;;18.30;10.38;;;;;;;10.12;63.78;98363.38;4953466;28;20102;-80
2020/12/06 09:42:03;;;;;;;8.10;6.47;;;;;;;10.26;63.15;98366.53;4925605;28;20035;-81
2020/12/06 09:44:29;;;;;;;15.35;6.55;;;;;;;9.71;64.92;98361.84;4948511;28;20038;-82
2020/12/06 09:46:55;;;;;;;8.55;5.70;;;;;;;9.91;64.26;98358.75;4942901;28;20034;-83
2020/12/06 09:49:20;;;;;;;10.85;5.88;;;;;;;10.18;63.44;98362.38;4933556;28;20398;-80
2020/12/06 09:51:48;;;;;;;11.10;6.18;;;;;;;10.00;64.46;98364.56;4949075;29;20091;-79
2020/12/06 09:54:14;;;;;;;9.90;5.63;;;;;;;9.84;64.36;98362.38;4950698;28;20043;-79
2020/12/06 09:56:40;;;;;;;8.02;5.35;;;;;;;10.37;63.32;98368.81;4953767;28;20042;-83
2020/12/06 09:59:06;;;;;;;9.52;5.65;;;;;;;10.36;62.84;98367.97;4936440;29;20332;-84
2020/12/06 10:01:31;;;;;;;8.63;5.22;;;;;;;10.46;63.02;98369.41;4977329;28;20125;-82
2020/12/06 10:03:57;;;;;;;7.60;5.18;;;;;;;10.64;62.38;98361.97;4970012;28;20117;-81
2020/12/06 10:06:26;;;;;;;7.72;5.05;;;;;;;10.44;62.49;98360.78;4951525;28;20024;-80
2020/12/06 10:08:53;;;;;;;9.27;5.30;;;;;;;10.67;62.42;98367.97;4946694;28;20700;-83
2020/12/06 10:11:20;;;;;;;7.63;5.82;;;;;;;10.68;62.60;98359.22;4934841;28;20046;-81
2020/12/06 10:13:46;;;;;;;11.88;8.45;;;;;;;10.59;62.76;98367.34;4936264;28;20055;-81
2020/12/06 10:16:13;;;;;;;7.13;4.53;;;;;;;10.25;63.85;98359.59;4950990;28;20031;-81
2020/12/06 10:18:39;;;;;;;10.38;6.03;;;;;;;10.60;63.05;98366.41;4951653;28;20027;-81
2020/12/06 10:21:05;;;;;;;14.45;6.13;;;;;;;10.58;62.93;98369.97;4933490;29;20039;-80
2020/12/06 10:23:33;;;;;;;10.48;5.40;;;;;;;10.55;63.22;98373.50;4931083;29;20105;-79
2020/12/06 10:26:00;;;;;;;11.38;6.20;;;;;;;10.77;62.64;98371.16;4944907;28;20054;-83
2020/12/06 10:28:26;;;;;;;13.80;5.88;;;;;;;10.66;62.31;98376.69;4950312;28;20098;-82
2020/12/06 10:30:52;;;;;;;9.52;5.40;;;;;;;10.74;62.75;98369.47;4960088;28;20051;-82
2020/12/06 10:33:17;;;;;;;7.75;5.28;;;;;;;10.95;62.29;98373.22;4930054;29;20039;-80
2020/12/06 10:35:44;;;;;;;11.43;5.53;;;;;;;10.82;62.62;98374.50;4936722;29;20054;-83
2020/12/06 10:38:11;;;;;;;8.52;5.22;;;;;;;10.99;61.98;98380.06;4949011;28;20054;-80
2020/12/06 10:40:37;;;;;;;8.57;5.72;;;;;;;11.17;61.75;98383.91;4935402;29;20027;-82
2020/12/06 10:43:03;;;;;;;8.43;5.25;;;;;;;11.03;61.91;98386.91;4953481;28;20182;-81
2020/12/06 10:45:29;;;;;;;6.78;5.15;;;;;;;10.79;62.81;98388.47;4937426;29;20062;-81
2020/12/06 10:47:55;;;;;;;7.65;6.15;;;;;;;10.52;63.53;98383.19;4941393;29;20042;-80
2020/12/06 10:50:23;;;;;;;10.52;6.55;;;;;;;10.70;63.61;98382.66;4967747;28;20081;-81
2020/12/06 10:52:49;;;;;;;11.13;5.95;;;;;;;11.10;62.98;98388.44;4950764;28;20398;-78
2020/12/06 10:55:15;;;;;;;8.02;6.00;;;;;;;11.33;61.99;98379.88;4949392;28;20035;-79
2020/12/06 10:57:44;;;;;;;8.73;6.30;;;;;;;11.53;61.94;98382.72;4949140;28;20495;-79
2020/12/06 11:00:10;;;;;;;9.57;6.50;;;;;;;11.58;61.36;98379.97;4949301;29;20049;-81
2020/12/06 11:02:36;;;;;;;8.82;6.25;;;;;;;11.44;61.63;98379.56;4937726;29;20138;-80
2020/12/06 11:05:01;;;;;;;11.25;6.05;;;;;;;11.22;62.01;98379.38;4951176;28;20057;-83
2020/12/06 11:07:27;;;;;;;8.57;6.35;;;;;;;11.16;62.03;98383.03;4953534;28;20094;-81
2020/12/06 11:09:53;;;;;;;10.73;6.20;;;;;;;11.63;61.21;98378.91;4947867;28;20062;-81
2020/12/06 11:12:25;;;;;;;9.85;6.72;;;;;;;11.78;60.78;98383.69;4949036;28;20043;-82
2020/12/06 11:14:54;;;;;;;8.63;6.80;;;;;;;11.67;60.55;98379.66;4936992;29;20095;-82
2020/12/06 11:17:20;;;;;;;9.30;6.90;;;;;;;11.84;60.66;98377.41;4923933;29;20684;-79
2020/12/06 11:19:45;;;;;;;10.05;7.38;;;;;;;11.60;61.08;98378.16;4932132;28;20134;-82
2020/12/06 11:22:11;;;;;;;9.23;6.90;;;;;;;11.58;61.05;98375.59;4949665;28;20031;-80
2020/12/06 11:24:38;;;;;;;9.07;6.85;;;;;;;11.49;62.01;98370.66;4969203;28;20038;-80
2020/12/06 11:27:07;;;;;;;12.02;7.30;;;;;;;11.51;62.00;98376.69;4963582;28;20095;-80
2020/12/06 11:29:33;;;;;;;10.00;7.30;;;;;;;11.31;62.75;98372.13;4920193;29;20143;-78
2020/12/06 11:31:59;;;;;;;11.93;8.18;;;;;;;10.65;64.14;98376.72;4954043;28;20071;-79
2020/12/06 11:34:25;;;;;;;11.38;8.05;;;;;;;11.19;63.05;98379.47;4947622;28;20155;-80
2020/12/06 11:36:51;;;;;;;12.13;9.40;;;;;;;11.30;62.88;98375.63;4948161;28;20122;-81
2020/12/06 11:39:17;;;;;;;10.57;8.75;;;;;;;11.49;62.10;98385.50;4934719;28;20050;-80
2020/12/06 11:41:43;;;;;;;13.35;9.43;;;;;;;11.33;62.72;98372.03;4933999;29;20059;-82
2020/12/06 11:44:09;;;;;;;12.95;9.20;;;;;;;11.70;61.54;98375.19;4950804;28;20089;-83